KTHV/THV METAR and TAF weather

Enter ICAO airport designator
Station Type Date Time Source
KTHV METAR 2020/04/07 06:53 UTC NOAA

KTHV 070653Z AUTO 00000KT 10SM BKN090 03/00 A2996 RMK AO2 SLP147 T00330000


Station Type Date Time Source
KTHV Decoded METAR 2020/04/07 06:53 UTC NOAA

YORK AIRPORT, PA, United States (KTHV) 39-55N 076-53W 144M
Apr 07, 2020 - 02:53 AM EDT / 2020.04.07 0653 UTC
Wind: Calm:0
Visibility: 10 mile(s):0
Sky conditions: mostly cloudy
Temperature: 37.9 F (3.3 C)
Dew Point: 32.0 F (0.0 C)
Relative Humidity: 78%
Pressure (altimeter): 29.96 in. Hg (1014 hPa)
ob: KTHV 070653Z AUTO 00000KT 10SM BKN090 03/00 A2996 RMK AO2 SLP147 T00330000
cycle: 7

Station Type Date Time Source
KTHV TAF UTC NOAA

Error!

Example: see airport list